Time;durP1;ratioP1;P1;durP2;ratioP2;P2;SDS_P1;SDS_P2;PMS_P1;PMS_P2;Temp;Humidity;BMP_temperature;BMP_pressure;BME280_temperature;BME280_humidity;BME280_pressure;Samples;Min_cycle;Max_cycle;Signal;HPM_P1;HPM_P2
2023/04/29 00:00:31;;;;;;;;;;;;;;;15.61;62.83;101163.94;1250948;23;617;-68
2023/04/29 00:01:22;;;;;;;;;;;;;;;15.61;62.73;101158.56;1251138;23;626;-68
2023/04/29 00:02:13;;;;;;;;;;;;;;;15.58;62.63;101156.16;1251071;23;609;-68
2023/04/29 00:03:03;;;;;;;;;;;;;;;15.54;63.05;101160.88;1250974;23;1909;-68
2023/04/29 00:03:54;;;;;;;;;;;;;;;15.56;63.15;101160.81;1251131;23;648;-68
2023/04/29 00:04:44;;;;;;;;;;;;;;;15.57;62.96;101163.38;1251152;23;664;-68
2023/04/29 00:05:35;;;;;;;;;;;;;;;15.58;62.85;101161.53;1251256;23;653;-67
2023/04/29 00:06:25;;;;;;;;;;;;;;;15.57;62.69;101170.56;1246989;23;635;-67
2023/04/29 00:07:15;;;;;;;;;;;;;;;15.54;62.76;101168.09;1250739;23;618;-67
2023/04/29 00:08:06;;;;;;;;;;;;;;;15.55;62.83;101165.31;1251119;23;793;-67
2023/04/29 00:08:57;;;;;;;;;;;;;;;15.55;63.06;101169.81;1247246;23;697;-67
2023/04/29 00:09:47;;;;;;;;;;;;;;;15.56;62.88;101164.34;1247709;23;654;-67
2023/04/29 00:10:38;;;;;;;;;;;;;;;15.54;63.17;101171.63;1249416;23;689;-67
2023/04/29 00:11:28;;;;;;;;;;;;;;;15.55;63.02;101175.16;1248473;23;682;-67
2023/04/29 00:12:19;;;;;;;;;;;;;;;15.56;62.95;101176.91;1250959;23;618;-67
2023/04/29 00:13:10;;;;;;;;;;;;;;;15.56;62.83;101180.47;1251007;23;681;-67
2023/04/29 00:14:01;;;;;;;;;;;;;;;15.56;62.75;101167.03;1246901;23;665;-67
2023/04/29 00:14:51;;;;;;;;;;;;;;;15.57;63.00;101176.78;1251170;23;610;-67
2023/04/29 00:15:42;;;;;;;;;;;;;;;15.57;62.54;101178.63;1251130;23;617;-67
2023/04/29 00:16:32;;;;;;;;;;;;;;;15.56;62.72;101167.03;1250970;23;657;-67
2023/04/29 00:17:23;;;;;;;;;;;;;;;15.56;62.75;101176.91;1251170;23;614;-67
2023/04/29 00:18:13;;;;;;;;;;;;;;;15.57;62.93;101174.09;1250921;23;704;-67
2023/04/29 00:19:04;;;;;;;;;;;;;;;15.57;62.65;101170.56;1251204;23;617;-67
2023/04/29 00:19:54;;;;;;;;;;;;;;;15.55;62.81;101172.50;1250995;23;692;-67
2023/04/29 00:20:45;;;;;;;;;;;;;;;15.54;62.75;101168.94;1251299;23;751;-67
2023/04/29 00:21:35;;;;;;;;;;;;;;;15.53;63.12;101174.44;1250990;23;775;-67
2023/04/29 00:22:26;;;;;;;;;;;;;;;15.52;62.87;101176.28;1247051;23;661;-68
2023/04/29 00:23:16;;;;;;;;;;;;;;;15.52;62.97;101178.97;1247075;23;1881;-67
2023/04/29 00:24:06;;;;;;;;;;;;;;;15.51;62.67;101179.94;1251167;23;625;-68
2023/04/29 00:24:57;;;;;;;;;;;;;;;15.48;62.88;101180.16;1250610;23;617;-67
2023/04/29 00:25:47;;;;;;;;;;;;;;;15.48;62.79;101177.47;1250942;23;751;-67
2023/04/29 00:26:39;;;;;;;;;;;;;;;15.53;63.04;101182.50;1247430;23;670;-67
2023/04/29 00:27:29;;;;;;;;;;;;;;;15.53;62.72;101177.13;1247642;23;650;-67
2023/04/29 00:28:20;;;;;;;;;;;;;;;15.52;63.11;101176.28;1249917;23;680;-67
2023/04/29 00:29:10;;;;;;;;;;;;;;;15.53;62.98;101182.50;1249018;23;642;-68
2023/04/29 00:30:02;;;;;;;;;;;;;;;15.53;62.98;101182.50;1249477;23;649;-67
2023/04/29 00:30:53;;;;;;;;;;;;;;;15.50;62.95;101178.22;1246811;23;630;-67
2023/04/29 00:31:43;;;;;;;;;;;;;;;15.54;62.89;101189.59;1247199;23;657;-67
2023/04/29 00:32:34;;;;;;;;;;;;;;;15.53;62.83;101187.88;1251155;23;601;-67
2023/04/29 00:33:24;;;;;;;;;;;;;;;15.50;62.91;101180.91;1251024;23;633;-67
2023/04/29 00:34:15;;;;;;;;;;;;;;;15.52;62.88;101184.31;1249333;23;657;-67
2023/04/29 00:35:06;;;;;;;;;;;;;;;15.52;62.90;101184.31;1250898;23;684;-67
2023/04/29 00:35:56;;;;;;;;;;;;;;;15.52;62.77;101195.06;1251066;23;653;-67
2023/04/29 00:36:46;;;;;;;;;;;;;;;15.53;63.04;101190.56;1251261;23;622;-67
2023/04/29 00:37:37;;;;;;;;;;;;;;;15.53;63.01;101195.94;1246911;23;618;-67
2023/04/29 00:38:28;;;;;;;;;;;;;;;15.52;63.02;101197.75;1251180;23;996;-67
2023/04/29 00:39:18;;;;;;;;;;;;;;;15.52;62.76;101192.38;1247114;23;764;-67
2023/04/29 00:40:09;;;;;;;;;;;;;;;15.53;62.94;101194.09;1247305;23;643;-68
2023/04/29 00:40:59;;;;;;;;;;;;;;;15.55;63.08;101194.88;1247646;23;658;-67
2023/04/29 00:41:50;;;;;;;;;;;;;;;15.53;62.68;101194.09;1251100;23;649;-67
2023/04/29 00:42:40;;;;;;;;;;;;;;;15.53;62.55;101196.78;1250963;23;700;-68
2023/04/29 00:43:31;;;;;;;;;;;;;;;15.50;62.96;101197.03;1251107;23;906;-67
2023/04/29 00:44:21;;;;;;;;;;;;;;;15.51;62.66;101196.03;1251063;23;649;-68
2023/04/29 00:45:11;;;;;;;;;;;;;;;15.53;62.70;101198.63;1250755;23;634;-68
2023/04/29 00:46:02;;;;;;;;;;;;;;;15.53;62.63;101194.09;1246677;23;635;-68
2023/04/29 00:46:53;;;;;;;;;;;;;;;15.54;62.86;101194.94;1251141;23;648;-68
2023/04/29 00:47:43;;;;;;;;;;;;;;;15.51;62.81;101196.03;1247517;23;650;-68
2023/04/29 00:48:34;;;;;;;;;;;;;;;15.49;62.96;101198.00;1249834;23;681;-67
2023/04/29 00:49:24;;;;;;;;;;;;;;;15.52;62.71;101205.81;1249785;23;661;-67
2023/04/29 00:50:15;;;;;;;;;;;;;;;15.52;62.86;101196.91;1249067;23;700;-67
2023/04/29 00:51:05;;;;;;;;;;;;;;;15.51;62.73;101200.56;1251039;23;613;-67
2023/04/29 00:51:56;;;;;;;;;;;;;;;15.51;62.92;101205.94;1246631;23;627;-67
2023/04/29 00:52:46;;;;;;;;;;;;;;;15.50;62.87;101198.84;1247008;23;728;-67
2023/04/29 00:53:37;;;;;;;;;;;;;;;15.50;62.87;101201.53;1251018;23;629;-67
2023/04/29 00:54:27;;;;;;;;;;;;;;;15.48;62.91;101203.50;1250794;23;680;-67
2023/04/29 00:55:18;;;;;;;;;;;;;;;15.49;62.93;101197.16;1246782;23;627;-67
2023/04/29 00:56:09;;;;;;;;;;;;;;;15.50;62.58;101205.09;1250930;23;1137;-67
2023/04/29 00:57:00;;;;;;;;;;;;;;;15.47;62.69;101205.31;1247922;23;700;-67
2023/04/29 00:57:51;;;;;;;;;;;;;;;15.45;62.81;101201.91;1250849;23;645;-67
2023/04/29 00:58:44;;;;;;;;;;;;;;;15.48;63.08;101208.88;1248424;23;696;-67
2023/04/29 00:59:35;;;;;;;;;;;;;;;15.48;63.16;101207.03;1251232;23;653;-67
2023/04/29 01:00:25;;;;;;;;;;;;;;;15.51;62.80;101206.78;1250848;23;695;-67
2023/04/29 01:01:16;;;;;;;;;;;;;;;15.51;63.03;101212.16;1250979;23;606;-67
2023/04/29 01:02:06;;;;;;;;;;;;;;;15.49;62.87;101207.88;1250837;23;719;-67
2023/04/29 01:02:58;;;;;;;;;;;;;;;15.45;63.14;101211.78;1250882;23;1881;-67
2023/04/29 01:03:49;;;;;;;;;;;;;;;15.47;63.19;101210.69;1250894;23;619;-67
2023/04/29 01:04:39;;;;;;;;;;;;;;;15.45;62.82;101209.97;1247241;23;646;-67
2023/04/29 01:05:30;;;;;;;;;;;;;;;15.45;62.81;101218.00;1251159;23;652;-67
2023/04/29 01:06:20;;;;;;;;;;;;;;;15.41;63.04;101208.47;1250833;23;668;-67
2023/04/29 01:07:11;;;;;;;;;;;;;;;15.42;63.22;101212.88;1246866;23;653;-67
2023/04/29 01:08:02;;;;;;;;;;;;;;;15.44;63.22;101218.97;1246446;23;630;-67
2023/04/29 01:08:53;;;;;;;;;;;;;;;15.44;63.07;101215.44;1246721;23;646;-67
2023/04/29 01:09:43;;;;;;;;;;;;;;;15.43;62.99;101209.22;1251167;23;670;-67
2023/04/29 01:10:33;;;;;;;;;;;;;;;15.46;62.83;101203.59;1250571;23;626;-67
2023/04/29 01:11:24;;;;;;;;;;;;;;;15.46;63.04;101208.13;1250814;23;669;-67
2023/04/29 01:12:15;;;;;;;;;;;;;;;15.48;62.88;101209.72;1250927;23;653;-67
2023/04/29 01:13:06;;;;;;;;;;;;;;;15.49;62.55;101211.44;1246737;23;653;-67
2023/04/29 01:13:56;;;;;;;;;;;;;;;15.47;62.60;101212.53;1246961;23;726;-66
2023/04/29 01:14:47;;;;;;;;;;;;;;;15.47;62.73;101208.00;1246604;23;619;-67
2023/04/29 01:15:37;;;;;;;;;;;;;;;15.48;62.84;101215.09;1251075;23;672;-68
2023/04/29 01:16:28;;;;;;;;;;;;;;;15.45;62.94;101219.84;1250820;23;641;-68
2023/04/29 01:17:18;;;;;;;;;;;;;;;15.44;62.75;101221.66;1251052;23;650;-68
2023/04/29 01:18:09;;;;;;;;;;;;;;;15.43;62.95;101222.66;1251025;23;639;-67
2023/04/29 01:19:00;;;;;;;;;;;;;;;15.44;62.86;101221.66;1247462;23;705;-67
2023/04/29 01:19:50;;;;;;;;;;;;;;;15.47;63.43;101220.56;1250239;23;626;-67
2023/04/29 01:20:43;;;;;;;;;;;;;;;15.48;62.87;101223.16;1248609;23;685;-67
2023/04/29 01:21:34;;;;;;;;;;;;;;;15.47;62.89;101221.44;1247620;23;634;-67
2023/04/29 01:22:24;;;;;;;;;;;;;;;15.48;63.15;101228.53;1251408;23;625;-67
2023/04/29 01:23:14;;;;;;;;;;;;;;;15.47;62.49;101221.44;1250457;23;1927;-67
2023/04/29 01:24:05;;;;;;;;;;;;;;;15.43;62.92;101219.97;1251427;23;544;-68
2023/04/29 01:24:55;;;;;;;;;;;;;;;15.41;62.67;101226.44;1251442;23;669;-67
2023/04/29 01:25:47;;;;;;;;;;;;;;;15.42;63.21;101229.00;1251595;23;664;-67
2023/04/29 01:26:38;;;;;;;;;;;;;;;15.42;62.92;101228.13;1251539;23;645;-67
2023/04/29 01:27:28;;;;;;;;;;;;;;;15.43;62.85;101224.47;1251326;23;618;-67
2023/04/29 01:28:19;;;;;;;;;;;;;;;15.41;63.15;101227.28;1246994;23;623;-68
2023/04/29 01:29:09;;;;;;;;;;;;;;;15.41;62.78;101232.66;1251134;23;641;-68
2023/04/29 01:30:00;;;;;;;;;;;;;;;15.42;62.81;101237.06;1251143;23;661;-68
2023/04/29 01:30:50;;;;;;;;;;;;;;;15.42;62.57;101231.69;1247528;23;622;-67
2023/04/29 01:31:41;;;;;;;;;;;;;;;15.41;62.89;101232.66;1251553;23;630;-67
2023/04/29 01:32:31;;;;;;;;;;;;;;;15.41;62.92;101237.16;1247340;23;642;-67
2023/04/29 01:33:21;;;;;;;;;;;;;;;15.43;63.21;101235.22;1251203;23;813;-67
2023/04/29 01:34:12;;;;;;;;;;;;;;;15.41;63.04;101229.97;1251238;23;617;-67
2023/04/29 01:35:03;;;;;;;;;;;;;;;15.43;62.79;101229.84;1251243;23;633;-67
2023/04/29 01:35:53;;;;;;;;;;;;;;;15.44;62.78;101231.56;1251509;23;649;-67
2023/04/29 01:36:43;;;;;;;;;;;;;;;15.42;62.96;101234.38;1251425;23;622;-67
2023/04/29 01:37:34;;;;;;;;;;;;;;;15.42;62.73;101236.19;1246585;23;1034;-67
2023/04/29 01:38:24;;;;;;;;;;;;;;;15.42;63.08;101234.38;1251237;23;688;-68
2023/04/29 01:39:15;;;;;;;;;;;;;;;15.41;62.78;101238.03;1246916;23;599;-67
2023/04/29 01:40:05;;;;;;;;;;;;;;;15.44;63.07;101239.63;1247807;23;663;-67
2023/04/29 01:40:58;;;;;;;;;;;;;;;15.42;62.66;101242.41;1250344;23;629;-67
2023/04/29 01:41:48;;;;;;;;;;;;;;;15.43;62.74;101245.97;1250175;23;638;-67
2023/04/29 01:42:38;;;;;;;;;;;;;;;15.38;62.46;101240.13;1249798;23;654;-67
2023/04/29 01:43:29;;;;;;;;;;;;;;;15.39;62.84;101245.38;1247693;23;611;-67
2023/04/29 01:44:19;;;;;;;;;;;;;;;15.40;63.00;101239.03;1247750;23;654;-67
2023/04/29 01:45:10;;;;;;;;;;;;;;;15.37;62.64;101241.94;1249799;23;670;-67
2023/04/29 01:46:00;;;;;;;;;;;;;;;15.38;63.02;101243.66;1251262;23;681;-67
2023/04/29 01:46:51;;;;;;;;;;;;;;;15.40;62.80;101251.59;1249809;23;712;-67
2023/04/29 01:47:42;;;;;;;;;;;;;;;15.43;62.79;101246.81;1247590;23;679;-67
2023/04/29 01:48:32;;;;;;;;;;;;;;;15.42;62.77;101250.47;1251405;23;641;-67
2023/04/29 01:49:22;;;;;;;;;;;;;;;15.42;62.92;101244.25;1251166;23;681;-67
2023/04/29 01:50:13;;;;;;;;;;;;;;;15.41;62.64;101248.75;1251481;23;617;-67
2023/04/29 01:51:05;;;;;;;;;;;;;;;15.41;62.87;101248.75;1251293;23;649;-67
2023/04/29 01:51:55;;;;;;;;;;;;;;;15.39;63.13;101256.13;1250801;23;712;-67
2023/04/29 01:52:46;;;;;;;;;;;;;;;15.38;62.90;101242.81;1251450;23;665;-67
2023/04/29 01:53:38;;;;;;;;;;;;;;;15.38;63.33;101242.81;1251437;23;655;-67
2023/04/29 01:54:28;;;;;;;;;;;;;;;15.37;63.35;101247.31;1251300;23;732;-67
2023/04/29 01:55:19;;;;;;;;;;;;;;;15.39;62.88;101244.53;1251191;23;629;-67
2023/04/29 01:56:09;;;;;;;;;;;;;;;15.38;63.12;101251.72;1251312;23;649;-67
2023/04/29 01:57:00;;;;;;;;;;;;;;;15.37;63.21;101247.31;1249691;23;645;-68
2023/04/29 01:57:50;;;;;;;;;;;;;;;15.35;63.08;101246.59;1251400;23;733;-67
2023/04/29 01:58:41;;;;;;;;;;;;;;;15.34;63.12;101247.56;1251415;23;599;-67
2023/04/29 01:59:31;;;;;;;;;;;;;;;15.35;62.78;101249.28;1251295;23;712;-67
2023/04/29 02:00:22;;;;;;;;;;;;;;;15.35;62.96;101243.91;1251310;23;630;-67
2023/04/29 02:01:13;;;;;;;;;;;;;;;15.33;63.11;101248.53;1251463;23;621;-67
2023/04/29 02:02:03;;;;;;;;;;;;;;;15.33;63.10;101245.00;1247174;23;654;-67
2023/04/29 02:02:53;;;;;;;;;;;;;;;15.31;63.41;101242.44;1251474;23;613;-67
2023/04/29 02:03:44;;;;;;;;;;;;;;;15.32;63.04;101249.50;1251508;23;681;-68
2023/04/29 02:04:34;;;;;;;;;;;;;;;15.34;62.79;101250.25;1247460;23;635;-67
2023/04/29 02:05:25;;;;;;;;;;;;;;;15.36;62.84;101261.72;1246981;23;626;-68
2023/04/29 02:06:15;;;;;;;;;;;;;;;15.33;63.08;101248.53;1251122;23;665;-68
2023/04/29 02:07:06;;;;;;;;;;;;;;;15.31;63.38;101253.16;1249612;23;712;-68
2023/04/29 02:07:56;;;;;;;;;;;;;;;15.29;62.90;101249.75;1247711;23;623;-68
2023/04/29 02:08:47;;;;;;;;;;;;;;;15.29;63.01;101245.22;1247858;23;650;-68
2023/04/29 02:09:38;;;;;;;;;;;;;;;15.30;63.10;101248.75;1248028;23;627;-68
2023/04/29 02:10:28;;;;;;;;;;;;;;;15.31;63.40;101253.16;1247255;23;634;-68
2023/04/29 02:11:19;;;;;;;;;;;;;;;15.31;63.48;101250.47;1251564;23;665;-69
2023/04/29 02:12:10;;;;;;;;;;;;;;;15.33;63.22;101255.72;1249658;23;622;-68
2023/04/29 02:13:00;;;;;;;;;;;;;;;15.34;63.06;101255.63;1251264;23;856;-67
2023/04/29 02:13:51;;;;;;;;;;;;;;;15.35;63.05;101253.78;1251597;23;665;-68
2023/04/29 02:14:41;;;;;;;;;;;;;;;15.36;62.96;101253.66;1251303;23;1192;-68
2023/04/29 02:15:32;;;;;;;;;;;;;;;15.36;62.73;101266.25;1248714;23;700;-68
2023/04/29 02:16:22;;;;;;;;;;;;;;;15.36;62.48;101255.50;1247138;23;629;-67
2023/04/29 02:17:13;;;;;;;;;;;;;;;15.34;62.79;101258.31;1251184;23;684;-68
2023/04/29 02:18:03;;;;;;;;;;;;;;;15.34;63.26;101268.19;1251387;23;617;-69
2023/04/29 02:18:54;;;;;;;;;;;;;;;15.33;62.83;101271.84;1251408;23;637;-68
2023/04/29 02:19:44;;;;;;;;;;;;;;;15.32;63.41;101265.63;1247744;23;716;-69
2023/04/29 02:20:35;;;;;;;;;;;;;;;15.29;63.20;101268.53;1247446;23;618;-69
2023/04/29 02:21:26;;;;;;;;;;;;;;;15.29;63.48;101272.06;1249560;23;653;-69
2023/04/29 02:22:16;;;;;;;;;;;;;;;15.28;63.26;101275.72;1251284;23;645;-69
2023/04/29 02:23:06;;;;;;;;;;;;;;;15.33;62.87;101271.84;1251197;23;1893;-69
2023/04/29 02:23:57;;;;;;;;;;;;;;;15.33;62.83;101272.69;1251414;23;609;-69
2023/04/29 02:24:47;;;;;;;;;;;;;;;15.35;63.29;101276.13;1251230;23;716;-69
2023/04/29 02:25:38;;;;;;;;;;;;;;;15.35;63.03;101269.91;1251494;23;657;-69
2023/04/29 02:26:29;;;;;;;;;;;;;;;15.31;63.26;101271.97;1251432;23;618;-69
2023/04/29 02:27:19;;;;;;;;;;;;;;;15.28;63.52;101274.88;1251264;23;618;-69
2023/04/29 02:28:10;;;;;;;;;;;;;;;15.26;63.22;101271.47;1246978;23;647;-68
2023/04/29 02:29:02;;;;;;;;;;;;;;;15.29;63.20;101276.59;1247568;23;623;-68
2023/04/29 02:29:53;;;;;;;;;;;;;;;15.30;63.31;101278.31;1247835;23;653;-68
2023/04/29 02:30:43;;;;;;;;;;;;;;;15.29;63.06;101276.59;1249614;23;664;-68
2023/04/29 02:31:34;;;;;;;;;;;;;;;15.27;63.10;101275.84;1247511;23;626;-68
2023/04/29 02:32:24;;;;;;;;;;;;;;;15.25;63.54;101278.66;1251245;23;621;-68
2023/04/29 02:33:15;;;;;;;;;;;;;;;15.27;63.29;101282.06;1251257;23;653;-68
2023/04/29 02:34:05;;;;;;;;;;;;;;;15.25;63.50;101291.22;1251355;23;645;-68
2023/04/29 02:34:55;;;;;;;;;;;;;;;15.25;63.51;101285.84;1251151;23;685;-68
2023/04/29 02:35:46;;;;;;;;;;;;;;;15.27;63.47;101283.91;1250892;23;614;-69
2023/04/29 02:36:36;;;;;;;;;;;;;;;15.31;63.60;101281.84;1247358;23;681;-69
2023/04/29 02:37:27;;;;;;;;;;;;;;;15.33;63.01;101286.13;1251448;23;669;-69
2023/04/29 02:38:17;;;;;;;;;;;;;;;15.37;63.21;101284.06;1251053;23;749;-69
2023/04/29 02:39:08;;;;;;;;;;;;;;;15.33;63.13;101287.97;1251499;23;637;-69
2023/04/29 02:39:58;;;;;;;;;;;;;;;15.32;63.33;101291.63;1251384;23;665;-69
2023/04/29 02:40:49;;;;;;;;;;;;;;;15.29;63.33;101290.00;1251198;23;625;-69
2023/04/29 02:41:40;;;;;;;;;;;;;;;15.32;63.32;101286.25;1251250;23;611;-67
2023/04/29 02:42:31;;;;;;;;;;;;;;;15.30;63.27;101289.03;1251355;23;641;-68
2023/04/29 02:43:22;;;;;;;;;;;;;;;15.28;63.14;101302.59;1251093;23;1957;-68
2023/04/29 02:44:12;;;;;;;;;;;;;;;15.29;63.51;101301.63;1243833;23;1129;-68
2023/04/29 02:45:02;;;;;;;;;;;;;;;15.31;63.57;101300.66;1251117;23;665;-68
2023/04/29 02:45:53;;;;;;;;;;;;;;;15.27;63.22;101291.97;1251453;23;637;-68
2023/04/29 02:46:44;;;;;;;;;;;;;;;15.29;63.26;101292.69;1247346;23;603;-68
2023/04/29 02:47:35;;;;;;;;;;;;;;;15.30;63.46;101294.41;1251105;23;920;-68
2023/04/29 02:48:25;;;;;;;;;;;;;;;15.31;63.12;101301.50;1251270;23;641;-67
2023/04/29 02:49:16;;;;;;;;;;;;;;;15.31;63.34;101296.13;1246835;23;610;-67
2023/04/29 02:50:06;;;;;;;;;;;;;;;15.33;63.46;101298.69;1250775;23;614;-67
2023/04/29 02:50:57;;;;;;;;;;;;;;;15.32;63.30;101297.84;1251160;23;714;-67
2023/04/29 02:51:48;;;;;;;;;;;;;;;15.34;63.36;101295.91;1251377;23;618;-67
2023/04/29 02:52:40;;;;;;;;;;;;;;;15.35;63.46;101304.81;1249510;23;657;-68
2023/04/29 02:53:31;;;;;;;;;;;;;;;15.33;63.13;101301.38;1246956;23;623;-68
2023/04/29 02:54:21;;;;;;;;;;;;;;;15.33;63.40;101310.28;1251144;23;665;-67
2023/04/29 02:55:12;;;;;;;;;;;;;;;15.31;63.62;101306.00;1251392;23;616;-67
2023/04/29 02:56:03;;;;;;;;;;;;;;;15.29;63.54;101303.44;1251403;23;665;-67
2023/04/29 02:56:53;;;;;;;;;;;;;;;15.30;63.57;101310.53;1247244;23;696;-68
2023/04/29 02:57:44;;;;;;;;;;;;;;;15.31;63.17;101306.00;1251438;23;751;-68
2023/04/29 02:58:34;;;;;;;;;;;;;;;15.28;63.38;101307.09;1251244;23;656;-68
2023/04/29 02:59:25;;;;;;;;;;;;;;;15.27;63.82;101316.13;1249497;23;740;-67
2023/04/29 03:00:15;;;;;;;;;;;;;;;15.25;63.66;101310.03;1251057;23;630;-67
2023/04/29 03:01:06;;;;;;;;;;;;;;;15.28;63.63;101307.09;1251415;23;618;-67
2023/04/29 03:01:56;;;;;;;;;;;;;;;15.26;63.64;101314.41;1251238;23;794;-67
2023/04/29 03:02:47;;;;;;;;;;;;;;;15.26;63.40;101309.91;1251411;23;622;-67
2023/04/29 03:03:37;;;;;;;;;;;;;;;15.30;63.49;101307.84;1251314;23;673;-67
2023/04/29 03:04:28;;;;;;;;;;;;;;;15.30;63.77;101310.53;1246442;23;650;-67
2023/04/29 03:05:18;;;;;;;;;;;;;;;15.29;63.39;101314.19;1251151;23;610;-68
2023/04/29 03:06:09;;;;;;;;;;;;;;;15.28;63.61;101313.31;1246875;23;615;-68
2023/04/29 03:06:59;;;;;;;;;;;;;;;15.27;63.46;101310.75;1251271;23;717;-68
2023/04/29 03:07:50;;;;;;;;;;;;;;;15.25;63.60;101313.56;1251150;23;613;-68
2023/04/29 03:08:41;;;;;;;;;;;;;;;15.22;63.59;101318.34;1251446;23;745;-68
2023/04/29 03:09:31;;;;;;;;;;;;;;;15.22;63.30;101315.66;1250898;23;633;-68
2023/04/29 03:10:22;;;;;;;;;;;;;;;15.23;63.95;101314.66;1251097;23;653;-68
2023/04/29 03:11:12;;;;;;;;;;;;;;;15.23;63.49;101320.00;1247000;23;670;-68
2023/04/29 03:12:02;;;;;;;;;;;;;;;15.24;63.61;101316.34;1251230;23;772;-67
2023/04/29 03:12:53;;;;;;;;;;;;;;;15.21;63.66;101320.16;1251427;23;617;-68
2023/04/29 03:13:44;;;;;;;;;;;;;;;15.23;63.41;101320.88;1247172;23;622;-67
2023/04/29 03:14:35;;;;;;;;;;;;;;;15.23;63.63;101320.00;1247348;23;645;-68
2023/04/29 03:15:25;;;;;;;;;;;;;;;15.24;63.03;101322.59;1249831;23;637;-68
2023/04/29 03:16:16;;;;;;;;;;;;;;;15.29;63.71;101322.25;1249726;23;693;-67
2023/04/29 03:17:06;;;;;;;;;;;;;;;15.28;63.67;101320.53;1251227;23;618;-67
2023/04/29 03:18:00;;;;;;;;;;;;;;;15.27;63.74;101321.50;1251126;23;666;-67
2023/04/29 03:18:50;;;;;;;;;;;;;;;15.29;63.28;101322.25;1251378;23;700;-67
2023/04/29 03:19:41;;;;;;;;;;;;;;;15.27;63.59;101322.34;1248866;23;676;-67
2023/04/29 03:20:32;;;;;;;;;;;;;;;15.28;63.79;101317.84;1251382;23;620;-67
2023/04/29 03:21:24;;;;;;;;;;;;;;;15.29;63.30;101324.94;1251012;23;649;-67
2023/04/29 03:22:14;;;;;;;;;;;;;;;15.28;63.49;101325.91;1251169;23;614;-67
2023/04/29 03:23:05;;;;;;;;;;;;;;;15.29;63.39;101330.28;1250841;23;1893;-67
2023/04/29 03:23:55;;;;;;;;;;;;;;;15.30;63.39;101326.63;1251362;23;771;-67
2023/04/29 03:24:46;;;;;;;;;;;;;;;15.27;63.68;101322.34;1249496;23;650;-67
2023/04/29 03:25:36;;;;;;;;;;;;;;;15.24;63.71;101332.47;1251311;23;653;-67
2023/04/29 03:26:26;;;;;;;;;;;;;;;15.22;63.53;101323.69;1247201;23;709;-67
2023/04/29 03:27:17;;;;;;;;;;;;;;;15.21;63.38;101332.72;1251384;23;721;-67
2023/04/29 03:28:07;;;;;;;;;;;;;;;15.24;63.55;101327.09;1251061;23;613;-67
2023/04/29 03:28:58;;;;;;;;;;;;;;;15.26;63.69;101335.91;1251050;23;692;-67
2023/04/29 03:29:48;;;;;;;;;;;;;;;15.27;63.53;101333.09;1251314;23;620;-67
2023/04/29 03:30:39;;;;;;;;;;;;;;;15.26;63.35;101331.38;1251188;23;630;-67
2023/04/29 03:31:29;;;;;;;;;;;;;;;15.25;63.66;101331.50;1251224;23;610;-67
2023/04/29 03:32:19;;;;;;;;;;;;;;;15.25;63.30;101335.03;1251067;23;708;-68
2023/04/29 03:33:10;;;;;;;;;;;;;;;15.25;63.77;101339.56;1251332;23;626;-67
2023/04/29 03:34:00;;;;;;;;;;;;;;;15.28;63.49;101334.81;1251335;23;661;-67
2023/04/29 03:34:51;;;;;;;;;;;;;;;15.29;63.43;101336.53;1248601;23;704;-68
2023/04/29 03:35:41;;;;;;;;;;;;;;;15.29;63.12;101341.03;1251287;23;630;-67
2023/04/29 03:36:32;;;;;;;;;;;;;;;15.26;63.42;101338.59;1250949;23;653;-67
2023/04/29 03:37:22;;;;;;;;;;;;;;;15.27;63.39;101341.16;1251290;23;605;-68
2023/04/29 03:38:12;;;;;;;;;;;;;;;15.29;62.79;101341.91;1247199;23;645;-67
2023/04/29 03:39:03;;;;;;;;;;;;;;;15.27;63.38;101342.97;1246911;23;671;-67
2023/04/29 03:39:54;;;;;;;;;;;;;;;15.26;63.54;101342.13;1251040;23;676;-68
2023/04/29 03:40:44;;;;;;;;;;;;;;;15.19;63.44;101337.34;1251195;23;647;-68
2023/04/29 03:41:35;;;;;;;;;;;;;;;15.18;63.33;101341.00;1251263;23;618;-67
2023/04/29 03:42:25;;;;;;;;;;;;;;;15.20;63.31;101339.06;1250927;23;629;-67
2023/04/29 03:43:16;;;;;;;;;;;;;;;15.23;63.82;101336.13;1249402;23;1893;-68
2023/04/29 03:44:06;;;;;;;;;;;;;;;15.27;63.24;101340.28;1250988;23;1184;-67
2023/04/29 03:44:57;;;;;;;;;;;;;;;15.27;63.37;101342.97;1251019;23;677;-67
2023/04/29 03:45:47;;;;;;;;;;;;;;;15.27;63.35;101342.97;1251270;23;674;-67
2023/04/29 03:46:37;;;;;;;;;;;;;;;15.27;63.29;101342.97;1251210;23;661;-67
2023/04/29 03:47:28;;;;;;;;;;;;;;;15.25;63.66;101342.25;1246813;23;654;-67
2023/04/29 03:48:19;;;;;;;;;;;;;;;15.26;63.30;101339.44;1250562;23;625;-67
2023/04/29 03:49:09;;;;;;;;;;;;;;;15.28;63.30;101350.06;1251409;23;602;-67
2023/04/29 03:50:00;;;;;;;;;;;;;;;15.24;63.53;101348.56;1247528;23;634;-68
2023/04/29 03:50:50;;;;;;;;;;;;;;;15.21;63.29;101344.31;1251240;23;676;-67
2023/04/29 03:51:41;;;;;;;;;;;;;;;15.20;63.38;101349.81;1251091;23;704;-67
2023/04/29 03:52:31;;;;;;;;;;;;;;;15.20;63.19;101349.81;1251186;23;645;-68
2023/04/29 03:53:22;;;;;;;;;;;;;;;15.21;63.62;101349.69;1251051;23;618;-68
2023/04/29 03:54:12;;;;;;;;;;;;;;;15.21;63.44;101349.69;1251121;23;637;-68
2023/04/29 03:55:03;;;;;;;;;;;;;;;15.20;63.14;101353.34;1251016;23;645;-68
2023/04/29 03:55:53;;;;;;;;;;;;;;;15.24;63.26;101359.31;1251350;23;657;-68
2023/04/29 03:56:43;;;;;;;;;;;;;;;15.25;63.25;101350.28;1251281;23;641;-68
2023/04/29 03:57:34;;;;;;;;;;;;;;;15.21;63.40;101356.91;1249123;23;697;-68
2023/04/29 03:58:24;;;;;;;;;;;;;;;15.19;63.22;101354.31;1247462;23;670;-68
2023/04/29 03:59:15;;;;;;;;;;;;;;;15.19;63.66;101356.16;1247401;23;661;-68
2023/04/29 04:00:05;;;;;;;;;;;;;;;15.18;63.72;101354.44;1251230;23;634;-68
2023/04/29 04:00:56;;;;;;;;;;;;;;;15.17;63.59;101355.41;1250932;23;618;-67
2023/04/29 04:01:46;;;;;;;;;;;;;;;15.18;63.42;101359.81;1251212;23;785;-67
2023/04/29 04:02:36;;;;;;;;;;;;;;;15.20;63.44;101360.56;1250592;23;708;-67
2023/04/29 04:03:27;;;;;;;;;;;;;;;15.22;63.58;101362.16;1249390;23;1945;-68
2023/04/29 04:04:17;;;;;;;;;;;;;;;15.25;63.86;101363.72;1251367;23;582;-68
2023/04/29 04:05:09;;;;;;;;;;;;;;;15.27;63.29;101364.47;1251094;23;622;-67
2023/04/29 04:05:59;;;;;;;;;;;;;;;15.27;63.81;101364.47;1247095;23;635;-67
2023/04/29 04:06:50;;;;;;;;;;;;;;;15.28;63.39;101374.22;1251474;23;653;-67
2023/04/29 04:07:41;;;;;;;;;;;;;;;15.28;63.19;101372.41;1247422;23;602;-67
2023/04/29 04:08:31;;;;;;;;;;;;;;;15.24;63.40;101367.38;1251136;23;696;-67
2023/04/29 04:09:22;;;;;;;;;;;;;;;15.23;63.46;101374.56;1251110;23;613;-67
2023/04/29 04:10:12;;;;;;;;;;;;;;;15.21;63.56;101373.00;1251241;23;649;-67
2023/04/29 04:11:03;;;;;;;;;;;;;;;15.20;63.62;101379.34;1251136;23;796;-67
2023/04/29 04:11:53;;;;;;;;;;;;;;;15.20;63.67;101374.84;1247087;23;665;-68
2023/04/29 04:12:44;;;;;;;;;;;;;;;15.23;63.15;101376.41;1251427;23;634;-67
2023/04/29 04:13:35;;;;;;;;;;;;;;;15.23;63.35;101379.09;1250945;23;637;-67
2023/04/29 04:14:26;;;;;;;;;;;;;;;15.24;63.40;101375.44;1247211;23;650;-67
2023/04/29 04:15:16;;;;;;;;;;;;;;;15.23;63.45;101374.56;1246946;23;634;-67
2023/04/29 04:16:07;;;;;;;;;;;;;;;15.21;63.30;101375.69;1251358;23;661;-67
2023/04/29 04:16:57;;;;;;;;;;;;;;;15.21;63.44;101376.53;1250667;23;657;-67
2023/04/29 04:17:48;;;;;;;;;;;;;;;15.23;63.61;101387.13;1251079;23;634;-67
2023/04/29 04:18:38;;;;;;;;;;;;;;;15.22;63.21;101388.16;1246891;23;618;-68
2023/04/29 04:19:29;;;;;;;;;;;;;;;15.19;63.19;101383.84;1247826;23;643;-67
2023/04/29 04:20:19;;;;;;;;;;;;;;;15.19;63.44;101388.38;1247305;23;634;-67
2023/04/29 04:21:10;;;;;;;;;;;;;;;15.19;63.54;101385.69;1248011;23;665;-67
2023/04/29 04:22:00;;;;;;;;;;;;;;;15.18;63.83;101386.66;1251204;23;641;-67
2023/04/29 04:22:51;;;;;;;;;;;;;;;15.16;63.81;101381.41;1247301;23;642;-67
2023/04/29 04:23:42;;;;;;;;;;;;;;;15.19;63.67;101385.69;1246815;23;674;-67
2023/04/29 04:24:33;;;;;;;;;;;;;;;15.21;63.49;101379.22;1250696;23;660;-67
2023/04/29 04:25:23;;;;;;;;;;;;;;;15.19;63.28;101381.16;1251150;23;660;-67
2023/04/29 04:26:14;;;;;;;;;;;;;;;15.20;63.56;101387.41;1250863;23;614;-67
2023/04/29 04:27:04;;;;;;;;;;;;;;;15.20;63.24;101384.72;1246779;23;627;-67